Capitol Logistics 376




MBPV
Providenciales International Airport
Providenciales, TC
MYNN
Lynden Pindling International Airport
Nassau, BS

Activity Log

Date Flight Route Aircraft Duration
03/16/2021 CPX3276 MICAS4 MICAS A555 ZQA AR3 KURAY SF34 1h 44m
04/14/2020 CPX3276 PVN BR2L DUKKY A555 ZQA SF34 2h 25m
10/12/2019 CPX676 PVN BR2L DUKKY A555 ZQA SF34 1h 59m
09/04/2019 CPX676 PVN BR2L DUKKY A555 ZQA SF34 1h 25m
08/23/2019 CPX676 PVN BR2L DUKKY A555 ZQA SF34 1h 31m

Route Details

Aircraft Information
Group: Narrowbodies
Types: B738,B752
Route Data
Demand: V
Distance: 348nm
Duration: 1h 40m
Recm'd Route: PVN BR2L DUKKY A555 ZQA
Origin Wx: MBPV 272100Z 07007KT 9999 VCSH SCT012CB 29/21 Q1014
Dest. Wx: MYNN 272100Z 16011KT 9999 SCT016CB SCT025 29/20 A3001
Notes:

Financial History
Total Freight: 28,135lbs
Average Load: 5,627lbs/flt
Fuel Used: 8,195lbs
Avg. Fuel Used: 1,639lbs/flt
Fuel Expense: $5,573
Avg. Fuel Expense: $1,115
Avg. Fuel Cost: $0.68/lbs
Total Gross Income: $32,960
Pilot Pay: $1,195
Total Expenses: $3,820
Total Revenue: $21,362
Average Revenue: $6,592.09